createdAt,value
2023-02-19T00:03:52.597Z,78.68
2023-02-19T00:08:55.577Z,79.01
2023-02-19T00:13:59.699Z,79.67
2023-02-19T00:19:05.281Z,79.36
2023-02-19T00:24:08.818Z,79.00
2023-02-19T00:29:16.852Z,79.42
2023-02-19T00:34:19.629Z,78.92
2023-02-19T00:39:22.522Z,79.25
2023-02-19T00:44:25.311Z,79.56
2023-02-19T00:49:27.904Z,79.96
2023-02-19T00:54:31.869Z,79.97
2023-02-19T00:59:34.731Z,80.21
2023-02-19T01:04:37.748Z,80.09
2023-02-19T01:09:40.822Z,80.14
2023-02-19T01:14:43.528Z,80.05
2023-02-19T01:19:46.315Z,80.29
2023-02-19T01:24:48.887Z,80.31
2023-02-19T01:29:51.639Z,80.21
2023-02-19T01:34:54.339Z,80.08
2023-02-19T01:39:57.040Z,80.13
2023-02-19T01:45:32.358Z,79.90
2023-02-19T01:50:39.749Z,79.90
2023-02-19T01:55:43.440Z,79.47
2023-02-19T02:00:46.221Z,79.35
2023-02-19T02:06:02.519Z,79.73
2023-02-19T02:11:05.416Z,79.71
2023-02-19T02:16:23.313Z,80.17
2023-02-19T02:21:41.014Z,80.42
2023-02-19T02:27:04.784Z,80.19
2023-02-19T02:32:13.516Z,80.41
2023-02-19T02:37:17.038Z,79.82
2023-02-19T02:42:28.598Z,79.67
2023-02-19T02:47:51.749Z,79.64
2023-02-19T02:53:19.750Z,79.48
2023-02-19T02:58:25.067Z,79.64
2023-02-19T03:03:31.834Z,79.92
2023-02-19T03:08:41.707Z,79.62
2023-02-19T03:14:02.806Z,79.55
2023-02-19T03:19:21.737Z,79.30
2023-02-19T03:24:50.283Z,79.36
2023-02-19T03:29:55.891Z,78.34
2023-02-19T03:35:23.572Z,78.10
2023-02-19T03:40:30.383Z,77.92
2023-02-19T03:46:02.459Z,77.62
2023-02-19T03:51:14.189Z,77.50
2023-02-19T03:56:23.049Z,76.79
2023-02-19T04:01:36.123Z,76.19
2023-02-19T04:06:40.408Z,75.32
2023-02-19T04:11:43.383Z,75.44
2023-02-19T04:16:49.990Z,75.23
2023-02-19T04:21:53.730Z,75.40
2023-02-19T04:26:56.614Z,75.44
2023-02-19T04:31:59.305Z,75.35
2023-02-19T04:37:02.055Z,75.45
2023-02-19T04:42:05.098Z,76.59
2023-02-19T04:47:07.839Z,75.61
2023-02-19T04:52:10.927Z,74.51
2023-02-19T04:57:13.666Z,72.16
2023-02-19T05:02:16.420Z,70.36
2023-02-19T05:07:19.142Z,70.42
2023-02-19T05:12:21.926Z,69.58
2023-02-19T05:17:24.740Z,68.99
2023-02-19T05:22:30.102Z,68.14
2023-02-19T05:27:33.960Z,67.58
2023-02-19T05:32:36.727Z,67.18
2023-02-19T05:37:39.411Z,66.62
2023-02-19T05:42:42.231Z,66.47
2023-02-19T05:47:44.888Z,66.58
2023-02-19T05:52:47.732Z,67.52
2023-02-19T05:57:50.478Z,67.30
2023-02-19T06:02:54.208Z,66.74
2023-02-19T06:07:58.483Z,66.00
2023-02-19T06:13:04.215Z,66.07
2023-02-19T06:18:06.962Z,63.36
2023-02-19T06:23:09.807Z,63.14
2023-02-19T06:28:12.483Z,63.67
2023-02-19T06:33:15.186Z,64.01
2023-02-19T06:38:24.031Z,63.49
2023-02-19T06:43:26.688Z,63.29
2023-02-19T06:48:30.828Z,62.43
2023-02-19T06:53:33.571Z,62.40
2023-02-19T06:58:36.380Z,62.67
2023-02-19T07:03:39.073Z,62.47
2023-02-19T07:08:41.738Z,62.72
2023-02-19T07:13:44.536Z,62.26
2023-02-19T07:18:47.284Z,62.16
2023-02-19T07:23:49.997Z,62.27
2023-02-19T07:28:53.321Z,61.52
2023-02-19T07:33:56.299Z,61.25
2023-02-19T07:39:01.283Z,61.56
2023-02-19T07:44:04.298Z,61.60
2023-02-19T07:49:07.553Z,61.94
2023-02-19T07:54:10.550Z,62.21
2023-02-19T07:59:13.277Z,61.74
2023-02-19T08:04:16.036Z,62.04
2023-02-19T08:09:18.810Z,62.55
2023-02-19T08:14:32.814Z,62.41
2023-02-19T08:19:35.484Z,61.66
2023-02-19T08:24:43.239Z,62.73
2023-02-19T08:29:45.887Z,61.90
2023-02-19T08:34:48.592Z,62.92
2023-02-19T08:39:51.289Z,62.91
2023-02-19T08:44:54.057Z,63.22
2023-02-19T08:49:56.771Z,63.23
2023-02-19T08:55:02.799Z,62.92
2023-02-19T09:00:07.210Z,63.49
2023-02-19T09:05:11.935Z,63.91
2023-02-19T09:10:15.394Z,63.72
2023-02-19T09:15:18.545Z,63.79
2023-02-19T09:20:22.588Z,63.97
2023-02-19T09:25:29.529Z,64.30
2023-02-19T09:30:38.555Z,64.06
2023-02-19T09:35:41.239Z,64.01
2023-02-19T09:40:54.667Z,64.19
2023-02-19T09:46:07.370Z,64.20
2023-02-19T09:51:11.284Z,64.24
2023-02-19T09:56:14.114Z,64.86
2023-02-19T10:01:17.420Z,65.02
2023-02-19T10:06:32.563Z,65.49
2023-02-19T10:11:35.719Z,65.06
2023-02-19T10:16:43.023Z,64.87
2023-02-19T10:21:45.832Z,64.84
2023-02-19T10:26:49.586Z,65.03
2023-02-19T10:32:17.478Z,65.04
2023-02-19T10:37:20.266Z,65.19
2023-02-19T10:42:23.774Z,65.34
2023-02-19T10:47:27.945Z,65.99
2023-02-19T10:52:34.686Z,65.79
2023-02-19T10:57:38.191Z,66.26
2023-02-19T11:02:40.894Z,66.87
2023-02-19T11:07:52.579Z,66.84
2023-02-19T11:12:57.984Z,67.20
2023-02-19T11:18:26.855Z,67.75
2023-02-19T11:23:44.671Z,67.81
2023-02-19T11:28:57.004Z,68.40
2023-02-19T11:34:02.055Z,68.66
2023-02-19T11:39:10.757Z,68.83
2023-02-19T11:44:36.312Z,69.48
2023-02-19T11:49:50.419Z,69.35
2023-02-19T11:54:59.196Z,69.85
2023-02-19T12:00:04.770Z,70.15
2023-02-19T12:05:18.033Z,69.95
2023-02-19T12:10:35.917Z,69.80
2023-02-19T12:15:47.964Z,70.18
2023-02-19T12:21:02.849Z,70.30
2023-02-19T12:26:22.746Z,69.88
2023-02-19T12:31:55.304Z,70.49
2023-02-19T12:37:11.191Z,70.23
2023-02-19T12:42:37.698Z,70.79
2023-02-19T12:47:41.859Z,71.32
2023-02-19T12:52:44.645Z,71.09
2023-02-19T12:57:47.674Z,71.03
2023-02-19T13:02:51.252Z,71.08
2023-02-19T13:08:04.735Z,71.53
2023-02-19T13:13:19.598Z,71.70
2023-02-19T13:18:30.731Z,71.21
2023-02-19T13:23:57.796Z,71.87
2023-02-19T13:29:11.729Z,71.75
2023-02-19T13:34:38.560Z,71.81
2023-02-19T13:39:54.744Z,72.22
2023-02-19T13:44:58.853Z,72.16
2023-02-19T13:50:19.876Z,72.20
2023-02-19T13:55:44.700Z,72.25
2023-02-19T14:00:50.178Z,72.95
2023-02-19T14:06:17.282Z,72.98
2023-02-19T14:11:46.652Z,72.89
2023-02-19T14:16:52.462Z,72.89
2023-02-19T14:21:55.272Z,73.13
2023-02-19T14:26:58.141Z,72.74
2023-02-19T14:32:05.647Z,72.87
2023-02-19T14:37:19.023Z,73.30
2023-02-19T14:42:34.486Z,73.37
2023-02-19T14:47:37.721Z,73.78
2023-02-19T14:52:50.453Z,73.09
2023-02-19T14:57:55.995Z,73.59
2023-02-19T15:03:00.116Z,73.53
2023-02-19T15:08:09.576Z,73.43
2023-02-19T15:13:17.849Z,73.08
2023-02-19T15:18:22.469Z,72.80
2023-02-19T15:23:25.989Z,73.18
2023-02-19T15:28:32.901Z,73.12
2023-02-19T15:33:35.714Z,72.92
2023-02-19T15:38:38.539Z,72.98
2023-02-19T15:43:51.114Z,72.50
2023-02-19T15:48:54.069Z,72.44
2023-02-19T15:53:59.941Z,72.76
2023-02-19T15:59:13.991Z,72.31
2023-02-19T16:04:17.126Z,72.33
2023-02-19T16:09:22.593Z,72.25
2023-02-19T16:14:33.712Z,72.55
2023-02-19T16:19:58.274Z,73.05
2023-02-19T16:25:05.843Z,73.23
2023-02-19T16:30:17.728Z,73.31
2023-02-19T16:35:37.793Z,73.31
2023-02-19T16:40:43.570Z,73.25
2023-02-19T16:45:47.057Z,73.09
2023-02-19T16:50:49.825Z,73.00
2023-02-19T16:55:52.881Z,73.02
2023-02-19T17:00:56.582Z,72.94
2023-02-19T17:05:59.265Z,72.88
2023-02-19T17:11:04.043Z,72.91
2023-02-19T17:16:06.995Z,72.70
2023-02-19T17:21:15.725Z,72.47
2023-02-19T17:26:21.604Z,72.69
2023-02-19T17:31:24.575Z,72.05
2023-02-19T17:36:32.156Z,72.24
2023-02-19T17:41:34.913Z,72.15
2023-02-19T17:46:38.214Z,72.12
2023-02-19T17:51:40.874Z,71.94
2023-02-19T17:56:46.376Z,71.65
2023-02-19T18:01:49.272Z,72.05
2023-02-19T18:06:54.771Z,71.75
2023-02-19T18:11:57.600Z,71.54
2023-02-19T18:17:00.497Z,72.00
2023-02-19T18:22:04.731Z,72.00
2023-02-19T18:27:09.015Z,72.43
2023-02-19T18:32:11.667Z,71.94
2023-02-19T18:37:14.613Z,72.13
2023-02-19T18:42:17.496Z,72.64
2023-02-19T18:47:22.039Z,72.68
2023-02-19T18:52:26.573Z,73.15
2023-02-19T18:57:29.398Z,72.87
2023-02-19T19:02:42.898Z,72.93
2023-02-19T19:07:55.754Z,72.57
2023-02-19T19:12:58.900Z,72.88
2023-02-19T19:18:03.083Z,73.17
2023-02-19T19:23:06.705Z,72.88
2023-02-19T19:28:09.686Z,72.49
2023-02-19T19:33:14.212Z,72.99
2023-02-19T19:38:17.170Z,73.01
2023-02-19T19:43:19.805Z,72.78
2023-02-19T19:48:23.309Z,72.71
2023-02-19T19:53:26.124Z,73.14
2023-02-19T19:58:29.102Z,73.49
2023-02-19T20:03:33.659Z,73.41
2023-02-19T20:08:36.538Z,73.48
2023-02-19T20:13:39.166Z,73.82
2023-02-19T20:18:42.217Z,73.98
2023-02-19T20:23:44.988Z,74.35
2023-02-19T20:28:47.737Z,74.03
2023-02-19T20:33:51.514Z,74.56
2023-02-19T20:38:54.329Z,74.29
2023-02-19T20:43:56.997Z,74.20
2023-02-19T20:48:59.705Z,73.67
2023-02-19T20:54:02.445Z,73.53
2023-02-19T20:59:05.203Z,74.16
2023-02-19T21:04:08.201Z,74.19
2023-02-19T21:09:10.955Z,74.04
2023-02-19T21:14:13.650Z,74.32
2023-02-19T21:19:17.242Z,74.11
2023-02-19T21:24:19.846Z,74.61
2023-02-19T21:29:23.437Z,74.64
2023-02-19T21:34:28.050Z,74.48
2023-02-19T21:39:32.630Z,75.18
2023-02-19T21:44:35.431Z,75.18
2023-02-19T21:49:38.162Z,75.19
2023-02-19T21:54:40.863Z,75.89
2023-02-19T21:59:43.558Z,75.61
2023-02-19T22:04:47.254Z,76.14
2023-02-19T22:09:51.058Z,76.03
2023-02-19T22:14:53.743Z,76.09
2023-02-19T22:19:56.468Z,76.67
2023-02-19T22:24:59.158Z,76.58
2023-02-19T22:30:02.127Z,76.52
2023-02-19T22:35:06.802Z,76.67
2023-02-19T22:40:09.849Z,76.84
2023-02-19T22:45:12.719Z,77.08
2023-02-19T22:50:23.088Z,76.86
2023-02-19T22:55:25.743Z,76.84
2023-02-19T23:00:28.495Z,77.00
2023-02-19T23:05:32.671Z,77.14
2023-02-19T23:10:35.295Z,77.28
2023-02-19T23:15:38.035Z,77.75
2023-02-19T23:20:40.761Z,77.34
2023-02-19T23:25:43.537Z,77.74
2023-02-19T23:30:46.274Z,77.70
2023-02-19T23:35:48.985Z,77.87
2023-02-19T23:40:51.586Z,78.06
2023-02-19T23:45:54.325Z,78.29
2023-02-19T23:50:57.176Z,78.17
2023-02-19T23:55:59.889Z,78.29
